Current Weather

Moundou

Moundou, Chad (FTTD)

Report from: Sunday, December 4, 2022 12:00 PM WAT
Current time: Sunday, December 4, 2022 12:59 PM WAT

Nearby weather
Weather history
Weather forecast

Temperature36.0°C (96.8°F)
Heat index34.1°C (93.4°F)
Dew point9.0°C (48.2°F)
Winds 8 kts (4.1 m/s, 9.2 mph) Northwest (320°)
Clouds Sky clear
Altimeter29.85 in.Hg (1011 mB)
Relative humidity19 %
Density altitude2,619 ft. (798 m)
Remarks Ceiling and visibility OK
Flight conditions Visual Meteorological Conditions
Raw dataFTTD 041100Z 32008KT CAVOK 36/09 Q1011
An error has occurred. This application may no longer respond until reloaded. Reload 🗙